VIP08 GCXO-LPMA
Flight info
| Callsign | VIP08 |
|---|---|
| Flight time | N/A |
| Altitude | 36000 |
| Route | BIMBO DCT EKNOT |
| Aircraft | A319/M-SDE3FGHIRWY/LB1 |
Departure
| Time | 2026-04-18 11:13 |
|---|---|
| Airport | Tenerife Norte-Ciudad de La Laguna Airport (GCXO) |
Arrival
| Time | N/A |
|---|---|
| Airport | Cristiano Ronaldo International Airport (LPMA) |
| Time | Latitude | Longitude | Altitude | Speed | Heading |
|---|---|---|---|---|---|
| 2026-04-18 10:37 | 28.48541 | -16.34282 | 2088 ft | 0 kts | 21° |
| 2026-04-18 11:06 | 28.48532 | -16.34285 | 2088 ft | 4 kts | 20° |
| 2026-04-18 11:06 | 28.48506 | -16.34296 | 2088 ft | 4 kts | 19° |
| 2026-04-18 11:07 | 28.48481 | -16.34306 | 2088 ft | 4 kts | 17° |
| 2026-04-18 11:07 | 28.48455 | -16.34313 | 2088 ft | 4 kts | 4° |
| 2026-04-18 11:07 | 28.48434 | -16.34308 | 2088 ft | 2 kts | 294° |
| 2026-04-18 11:07 | 28.48433 | -16.34306 | 2088 ft | 0 kts | 290° |
| 2026-04-18 11:10 | 28.48437 | -16.34319 | 2088 ft | 8 kts | 291° |
| 2026-04-18 11:10 | 28.48474 | -16.34424 | 2088 ft | 17 kts | 290° |
| 2026-04-18 11:11 | 28.48517 | -16.34557 | 2088 ft | 19 kts | 290° |
| 2026-04-18 11:11 | 28.48567 | -16.34707 | 2088 ft | 21 kts | 291° |
| 2026-04-18 11:11 | 28.48622 | -16.34874 | 2088 ft | 24 kts | 290° |
| 2026-04-18 11:11 | 28.48678 | -16.35063 | 2088 ft | 26 kts | 288° |
| 2026-04-18 11:12 | 28.48747 | -16.35263 | 2088 ft | 28 kts | 294° |
| 2026-04-18 11:12 | 28.48820 | -16.35472 | 2088 ft | 29 kts | 289° |
| 2026-04-18 11:12 | 28.48856 | -16.35692 | 2088 ft | 29 kts | 251° |
| 2026-04-18 11:12 | 28.48784 | -16.35754 | 2088 ft | 1 kts | 120° |
| 2026-04-18 11:13 | 28.48775 | -16.35706 | 2088 ft | 17 kts | 102° |
| 2026-04-18 11:13 | 28.48655 | -16.35363 | 2088 ft | 91 kts | 107° |
| 2026-04-18 11:13 | 28.48345 | -16.34392 | 2139 ft | 160 kts | 112° |
| 2026-04-18 11:13 | 28.47948 | -16.33214 | 3004 ft | 157 kts | 113° |
| 2026-04-18 11:14 | 28.47520 | -16.32081 | 3897 ft | 155 kts | 115° |
| 2026-04-18 11:14 | 28.47060 | -16.30925 | 4564 ft | 165 kts | 118° |
| 2026-04-18 11:14 | 28.46559 | -16.29695 | 5151 ft | 178 kts | 118° |
| 2026-04-18 11:14 | 28.46024 | -16.28348 | 5643 ft | 197 kts | 118° |
| 2026-04-18 11:15 | 28.45447 | -16.26862 | 6128 ft | 215 kts | 118° |
| 2026-04-18 11:15 | 28.44815 | -16.25241 | 6595 ft | 239 kts | 118° |
| 2026-04-18 11:15 | 28.44108 | -16.23444 | 7241 ft | 259 kts | 118° |
| 2026-04-18 11:15 | 28.43356 | -16.21528 | 8046 ft | 270 kts | 118° |
| 2026-04-18 11:16 | 28.42584 | -16.19556 | 8986 ft | 275 kts | 118° |
| 2026-04-18 11:16 | 28.41813 | -16.17543 | 9913 ft | 282 kts | 114° |
| 2026-04-18 11:16 | 28.41428 | -16.15306 | 10734 ft | 301 kts | 94° |
| 2026-04-18 11:16 | 28.41880 | -16.12901 | 11363 ft | 326 kts | 69° |
| 2026-04-18 11:17 | 28.43262 | -16.10779 | 12048 ft | 346 kts | 43° |
| 2026-04-18 11:17 | 28.45371 | -16.09420 | 12961 ft | 354 kts | 18° |
| 2026-04-18 11:17 | 28.47804 | -16.08942 | 13917 ft | 357 kts | 5° |
| 2026-04-18 11:17 | 28.50299 | -16.08726 | 14823 ft | 361 kts | 4° |
| 2026-04-18 11:18 | 28.52812 | -16.08436 | 15724 ft | 365 kts | 6° |
| 2026-04-18 11:18 | 28.55334 | -16.07979 | 16587 ft | 369 kts | 9° |
| 2026-04-18 11:18 | 28.57866 | -16.07404 | 17430 ft | 373 kts | 11° |
| 2026-04-18 11:18 | 28.60423 | -16.06791 | 18246 ft | 377 kts | 10° |
| 2026-04-18 11:19 | 28.63005 | -16.06196 | 19011 ft | 381 kts | 9° |
| 2026-04-18 11:19 | 28.65593 | -16.05638 | 19728 ft | 386 kts | 9° |
| 2026-04-18 11:19 | 28.68246 | -16.05090 | 20423 ft | 390 kts | 8° |
| 2026-04-18 11:19 | 28.70944 | -16.04533 | 21106 ft | 395 kts | 9° |
| 2026-04-18 11:20 | 28.73657 | -16.03962 | 21767 ft | 400 kts | 9° |
| 2026-04-18 11:20 | 28.76408 | -16.03370 | 22402 ft | 405 kts | 9° |
| 2026-04-18 11:20 | 28.79193 | -16.02767 | 23027 ft | 409 kts | 9° |
| 2026-04-18 11:20 | 28.82003 | -16.02160 | 23653 ft | 413 kts | 9° |
| 2026-04-18 11:21 | 28.84840 | -16.01550 | 24239 ft | 417 kts | 9° |
| 2026-04-18 11:21 | 28.87705 | -16.00937 | 24818 ft | 421 kts | 9° |
| 2026-04-18 11:21 | 28.90599 | -16.00318 | 25382 ft | 425 kts | 9° |
| 2026-04-18 11:21 | 28.93517 | -15.99693 | 25935 ft | 428 kts | 9° |
| 2026-04-18 11:22 | 28.96453 | -15.99063 | 26492 ft | 432 kts | 8° |
| 2026-04-18 11:22 | 28.99424 | -15.98424 | 27035 ft | 435 kts | 8° |
| 2026-04-18 11:22 | 29.02410 | -15.97782 | 27563 ft | 439 kts | 8° |
| 2026-04-18 11:22 | 29.05423 | -15.97134 | 28092 ft | 442 kts | 8° |
| 2026-04-18 11:23 | 29.08461 | -15.96481 | 28605 ft | 446 kts | 8° |
| 2026-04-18 11:23 | 29.11522 | -15.95822 | 29109 ft | 449 kts | 8° |
| 2026-04-18 11:23 | 29.14605 | -15.95156 | 29602 ft | 453 kts | 8° |
| 2026-04-18 11:23 | 29.17721 | -15.94483 | 30097 ft | 456 kts | 8° |
| 2026-04-18 11:24 | 29.20856 | -15.93807 | 30593 ft | 459 kts | 8° |
| 2026-04-18 11:24 | 29.23966 | -15.93136 | 31057 ft | 463 kts | 8° |
| 2026-04-18 11:24 | 29.27139 | -15.92452 | 31543 ft | 466 kts | 8° |
| 2026-04-18 11:24 | 29.30323 | -15.91763 | 32183 ft | 464 kts | 8° |
| 2026-04-18 11:25 | 29.33500 | -15.91073 | 32779 ft | 463 kts | 8° |
| 2026-04-18 11:25 | 29.36662 | -15.90387 | 33388 ft | 462 kts | 8° |
| 2026-04-18 11:25 | 29.39822 | -15.89703 | 33969 ft | 461 kts | 8° |
| 2026-04-18 11:25 | 29.42980 | -15.89019 | 34511 ft | 461 kts | 8° |
| 2026-04-18 11:26 | 29.46127 | -15.88337 | 35089 ft | 460 kts | 8° |
| 2026-04-18 11:26 | 29.49268 | -15.87655 | 35648 ft | 458 kts | 8° |
| 2026-04-18 11:26 | 29.52400 | -15.86975 | 36178 ft | 457 kts | 8° |
| 2026-04-18 11:26 | 29.55518 | -15.86298 | 36675 ft | 456 kts | 8° |
| 2026-04-18 11:27 | 29.58627 | -15.85621 | 37196 ft | 454 kts | 8° |
| 2026-04-18 11:27 | 29.61724 | -15.84946 | 37653 ft | 453 kts | 8° |
| 2026-04-18 11:27 | 29.64825 | -15.84271 | 38007 ft | 453 kts | 8° |
| 2026-04-18 11:27 | 29.67862 | -15.83609 | 38042 ft | 448 kts | 8° |
| 2026-04-18 11:28 | 29.74030 | -15.82266 | 38048 ft | 448 kts | 8° |
| 2026-04-18 11:28 | 29.80124 | -15.80937 | 38053 ft | 448 kts | 8° |
| 2026-04-18 11:29 | 29.86254 | -15.79596 | 38056 ft | 448 kts | 8° |
| 2026-04-18 11:29 | 29.92386 | -15.78253 | 38061 ft | 448 kts | 8° |
| 2026-04-18 11:30 | 29.98539 | -15.77142 | 38080 ft | 445 kts | 359° |
| 2026-04-18 11:30 | 30.04637 | -15.77830 | 38080 ft | 440 kts | 347° |
| 2026-04-18 11:31 | 30.10664 | -15.79077 | 38053 ft | 440 kts | 346° |
| 2026-04-18 11:31 | 30.16717 | -15.80204 | 38050 ft | 441 kts | 348° |
| 2026-04-18 11:32 | 30.22780 | -15.81252 | 38048 ft | 441 kts | 348° |
| 2026-04-18 11:32 | 30.28802 | -15.82356 | 38051 ft | 440 kts | 347° |
| 2026-04-18 11:33 | 30.34864 | -15.83478 | 38053 ft | 441 kts | 347° |
| 2026-04-18 11:33 | 30.40922 | -15.84581 | 38061 ft | 441 kts | 347° |
| 2026-04-18 11:34 | 30.46981 | -15.85687 | 38069 ft | 440 kts | 347° |
| 2026-04-18 11:34 | 30.53044 | -15.86799 | 38077 ft | 440 kts | 347° |
| 2026-04-18 11:35 | 30.59100 | -15.87910 | 38084 ft | 440 kts | 347° |
| 2026-04-18 11:35 | 30.65154 | -15.89023 | 38091 ft | 440 kts | 347° |
| 2026-04-18 11:36 | 30.71168 | -15.90131 | 38100 ft | 440 kts | 347° |
| 2026-04-18 11:36 | 30.77235 | -15.91247 | 38107 ft | 440 kts | 347° |
| 2026-04-18 11:37 | 30.83241 | -15.92353 | 37591 ft | 434 kts | 347° |
| 2026-04-18 11:37 | 30.86233 | -15.92907 | 36811 ft | 437 kts | 347° |
| 2026-04-18 11:37 | 30.89262 | -15.93471 | 35753 ft | 446 kts | 347° |
| 2026-04-18 11:38 | 30.92364 | -15.94049 | 34785 ft | 455 kts | 348° |